sensor_id;sensor_type;location;lat;lon;timestamp;temperature;humidity
14140;DHT22;7150;53.514;9.988;2024-01-25T00:01:25;9.90;99.90
14140;DHT22;7150;53.514;9.988;2024-01-25T00:03:50;9.90;99.90
14140;DHT22;7150;53.514;9.988;2024-01-25T00:06:16;9.90;99.90
14140;DHT22;7150;53.514;9.988;2024-01-25T00:08:42;9.90;99.90
14140;DHT22;7150;53.514;9.988;2024-01-25T00:11:07;9.90;99.90
14140;DHT22;7150;53.514;9.988;2024-01-25T00:13:34;9.90;99.90
14140;DHT22;7150;53.514;9.988;2024-01-25T00:16:00;9.80;99.90
14140;DHT22;7150;53.514;9.988;2024-01-25T00:18:25;9.80;99.90
14140;DHT22;7150;53.514;9.988;2024-01-25T00:20:51;9.80;99.90
14140;DHT22;7150;53.514;9.988;2024-01-25T00:23:17;9.80;99.90
14140;DHT22;7150;53.514;9.988;2024-01-25T00:25:42;9.80;99.90
14140;DHT22;7150;53.514;9.988;2024-01-25T00:28:08;9.80;99.90
14140;DHT22;7150;53.514;9.988;2024-01-25T00:30:33;9.70;99.90
14140;DHT22;7150;53.514;9.988;2024-01-25T00:32:59;9.70;99.90
14140;DHT22;7150;53.514;9.988;2024-01-25T00:35:25;9.80;99.90
14140;DHT22;7150;53.514;9.988;2024-01-25T00:37:51;9.70;99.90
14140;DHT22;7150;53.514;9.988;2024-01-25T00:40:17;9.70;99.90
14140;DHT22;7150;53.514;9.988;2024-01-25T00:42:47;9.70;99.90
14140;DHT22;7150;53.514;9.988;2024-01-25T00:45:19;9.70;99.90
14140;DHT22;7150;53.514;9.988;2024-01-25T00:47:45;9.70;99.90
14140;DHT22;7150;53.514;9.988;2024-01-25T00:50:11;9.70;99.90
14140;DHT22;7150;53.514;9.988;2024-01-25T00:52:37;9.70;99.90
14140;DHT22;7150;53.514;9.988;2024-01-25T00:55:03;9.70;99.90
14140;DHT22;7150;53.514;9.988;2024-01-25T00:57:29;9.70;99.90
14140;DHT22;7150;53.514;9.988;2024-01-25T00:59:55;9.70;99.90
14140;DHT22;7150;53.514;9.988;2024-01-25T01:02:21;9.70;99.90
14140;DHT22;7150;53.514;9.988;2024-01-25T01:04:47;9.70;99.90
14140;DHT22;7150;53.514;9.988;2024-01-25T01:07:13;9.70;99.90
14140;DHT22;7150;53.514;9.988;2024-01-25T01:09:39;9.80;99.90
14140;DHT22;7150;53.514;9.988;2024-01-25T01:12:04;9.80;99.90
14140;DHT22;7150;53.514;9.988;2024-01-25T01:14:31;9.80;99.90
14140;DHT22;7150;53.514;9.988;2024-01-25T01:16:56;9.80;99.90
14140;DHT22;7150;53.514;9.988;2024-01-25T01:19:22;9.80;99.90
14140;DHT22;7150;53.514;9.988;2024-01-25T01:21:47;9.80;99.90
14140;DHT22;7150;53.514;9.988;2024-01-25T01:24:13;9.80;99.90
14140;DHT22;7150;53.514;9.988;2024-01-25T01:26:38;9.90;99.90
14140;DHT22;7150;53.514;9.988;2024-01-25T01:29:04;9.80;99.90
14140;DHT22;7150;53.514;9.988;2024-01-25T01:31:30;9.80;99.90
14140;DHT22;7150;53.514;9.988;2024-01-25T01:33:55;9.90;99.90
14140;DHT22;7150;53.514;9.988;2024-01-25T01:36:21;9.90;99.90
14140;DHT22;7150;53.514;9.988;2024-01-25T01:38:47;9.80;99.90
14140;DHT22;7150;53.514;9.988;2024-01-25T01:41:13;9.80;99.90
14140;DHT22;7150;53.514;9.988;2024-01-25T01:43:39;9.80;99.90
14140;DHT22;7150;53.514;9.988;2024-01-25T01:46:10;9.80;99.90
14140;DHT22;7150;53.514;9.988;2024-01-25T01:48:38;9.80;99.90
14140;DHT22;7150;53.514;9.988;2024-01-25T01:51:03;9.80;99.90
14140;DHT22;7150;53.514;9.988;2024-01-25T01:53:29;9.80;99.90
14140;DHT22;7150;53.514;9.988;2024-01-25T01:55:54;9.80;99.90
14140;DHT22;7150;53.514;9.988;2024-01-25T01:58:20;9.80;99.90
14140;DHT22;7150;53.514;9.988;2024-01-25T02:00:48;9.80;99.90
14140;DHT22;7150;53.514;9.988;2024-01-25T02:03:14;9.80;99.90
14140;DHT22;7150;53.514;9.988;2024-01-25T02:05:41;9.80;99.90
14140;DHT22;7150;53.514;9.988;2024-01-25T02:08:07;9.80;99.90
14140;DHT22;7150;53.514;9.988;2024-01-25T02:10:32;9.80;99.90
14140;DHT22;7150;53.514;9.988;2024-01-25T02:12:58;9.80;99.90
14140;DHT22;7150;53.514;9.988;2024-01-25T02:15:23;9.80;99.90
14140;DHT22;7150;53.514;9.988;2024-01-25T02:17:49;9.80;99.90
14140;DHT22;7150;53.514;9.988;2024-01-25T02:20:17;9.70;99.90
14140;DHT22;7150;53.514;9.988;2024-01-25T02:22:43;9.70;99.90
14140;DHT22;7150;53.514;9.988;2024-01-25T02:25:08;9.70;99.90
14140;DHT22;7150;53.514;9.988;2024-01-25T02:27:33;9.70;99.90
14140;DHT22;7150;53.514;9.988;2024-01-25T02:30:07;9.70;99.90
14140;DHT22;7150;53.514;9.988;2024-01-25T02:32:33;9.70;99.90
14140;DHT22;7150;53.514;9.988;2024-01-25T02:34:58;9.60;99.90
14140;DHT22;7150;53.514;9.988;2024-01-25T02:37:24;9.60;99.90
14140;DHT22;7150;53.514;9.988;2024-01-25T02:39:50;9.60;99.90
14140;DHT22;7150;53.514;9.988;2024-01-25T02:42:16;9.60;99.90
14140;DHT22;7150;53.514;9.988;2024-01-25T02:44:42;9.60;99.90
14140;DHT22;7150;53.514;9.988;2024-01-25T02:47:08;9.60;99.90
14140;DHT22;7150;53.514;9.988;2024-01-25T02:49:34;9.70;99.90
14140;DHT22;7150;53.514;9.988;2024-01-25T02:51:59;9.70;99.90
14140;DHT22;7150;53.514;9.988;2024-01-25T02:54:25;9.70;99.90
14140;DHT22;7150;53.514;9.988;2024-01-25T02:56:50;9.60;99.90
14140;DHT22;7150;53.514;9.988;2024-01-25T02:59:16;9.60;99.90
14140;DHT22;7150;53.514;9.988;2024-01-25T03:01:41;9.60;99.90
14140;DHT22;7150;53.514;9.988;2024-01-25T03:04:07;9.60;99.90
14140;DHT22;7150;53.514;9.988;2024-01-25T03:06:33;9.60;99.90
14140;DHT22;7150;53.514;9.988;2024-01-25T03:08:58;9.60;99.90
14140;DHT22;7150;53.514;9.988;2024-01-25T03:11:24;9.70;99.90
14140;DHT22;7150;53.514;9.988;2024-01-25T03:13:49;9.70;99.90
14140;DHT22;7150;53.514;9.988;2024-01-25T03:16:15;9.70;99.90
14140;DHT22;7150;53.514;9.988;2024-01-25T03:18:40;9.70;99.90
14140;DHT22;7150;53.514;9.988;2024-01-25T03:21:07;9.70;99.90
14140;DHT22;7150;53.514;9.988;2024-01-25T03:23:33;9.70;99.90
14140;DHT22;7150;53.514;9.988;2024-01-25T03:25:58;9.70;99.90
14140;DHT22;7150;53.514;9.988;2024-01-25T03:28:23;9.70;99.90
14140;DHT22;7150;53.514;9.988;2024-01-25T03:30:49;9.70;99.90
14140;DHT22;7150;53.514;9.988;2024-01-25T03:33:15;9.70;99.90
14140;DHT22;7150;53.514;9.988;2024-01-25T03:35:40;9.60;99.90
14140;DHT22;7150;53.514;9.988;2024-01-25T03:38:05;9.70;99.90
14140;DHT22;7150;53.514;9.988;2024-01-25T03:40:31;9.70;99.90
14140;DHT22;7150;53.514;9.988;2024-01-25T03:42:56;9.60;99.90
14140;DHT22;7150;53.514;9.988;2024-01-25T03:45:22;9.60;99.90
14140;DHT22;7150;53.514;9.988;2024-01-25T03:47:47;9.60;99.90
14140;DHT22;7150;53.514;9.988;2024-01-25T03:50:13;9.60;99.90
14140;DHT22;7150;53.514;9.988;2024-01-25T03:52:38;9.60;99.90
14140;DHT22;7150;53.514;9.988;2024-01-25T03:55:04;9.70;99.90
14140;DHT22;7150;53.514;9.988;2024-01-25T03:57:30;9.60;99.90
14140;DHT22;7150;53.514;9.988;2024-01-25T03:59:55;9.60;99.90
14140;DHT22;7150;53.514;9.988;2024-01-25T04:02:21;9.60;99.90
14140;DHT22;7150;53.514;9.988;2024-01-25T04:04:46;9.60;99.90
14140;DHT22;7150;53.514;9.988;2024-01-25T04:07:12;9.70;99.90
14140;DHT22;7150;53.514;9.988;2024-01-25T04:09:37;9.60;99.90
14140;DHT22;7150;53.514;9.988;2024-01-25T04:12:04;9.70;99.90
14140;DHT22;7150;53.514;9.988;2024-01-25T04:14:29;9.70;99.90
14140;DHT22;7150;53.514;9.988;2024-01-25T04:16:55;9.70;99.90
14140;DHT22;7150;53.514;9.988;2024-01-25T04:19:20;9.70;99.90
14140;DHT22;7150;53.514;9.988;2024-01-25T04:21:45;9.70;99.90
14140;DHT22;7150;53.514;9.988;2024-01-25T04:24:11;9.70;99.90
14140;DHT22;7150;53.514;9.988;2024-01-25T04:26:36;9.70;99.90
14140;DHT22;7150;53.514;9.988;2024-01-25T04:29:02;9.80;99.90
14140;DHT22;7150;53.514;9.988;2024-01-25T04:31:28;9.70;99.90
14140;DHT22;7150;53.514;9.988;2024-01-25T04:33:53;9.70;99.90
14140;DHT22;7150;53.514;9.988;2024-01-25T04:36:18;9.70;99.90
14140;DHT22;7150;53.514;9.988;2024-01-25T04:38:44;9.70;99.90
14140;DHT22;7150;53.514;9.988;2024-01-25T04:41:10;9.80;99.90
14140;DHT22;7150;53.514;9.988;2024-01-25T04:43:36;9.70;99.90
14140;DHT22;7150;53.514;9.988;2024-01-25T04:46:02;9.70;99.90
14140;DHT22;7150;53.514;9.988;2024-01-25T04:48:28;9.70;99.90
14140;DHT22;7150;53.514;9.988;2024-01-25T04:50:53;9.70;99.90
14140;DHT22;7150;53.514;9.988;2024-01-25T04:53:19;9.70;99.90
14140;DHT22;7150;53.514;9.988;2024-01-25T04:55:44;9.70;99.90
14140;DHT22;7150;53.514;9.988;2024-01-25T04:58:10;9.70;99.90
14140;DHT22;7150;53.514;9.988;2024-01-25T05:00:36;9.70;99.90
14140;DHT22;7150;53.514;9.988;2024-01-25T05:03:03;9.70;99.90
14140;DHT22;7150;53.514;9.988;2024-01-25T05:05:29;9.70;99.90
14140;DHT22;7150;53.514;9.988;2024-01-25T05:07:54;9.70;99.90
14140;DHT22;7150;53.514;9.988;2024-01-25T05:10:20;9.70;99.90
14140;DHT22;7150;53.514;9.988;2024-01-25T05:12:45;9.70;99.90
14140;DHT22;7150;53.514;9.988;2024-01-25T05:15:11;9.70;99.90
14140;DHT22;7150;53.514;9.988;2024-01-25T05:17:36;9.70;99.90
14140;DHT22;7150;53.514;9.988;2024-01-25T05:20:02;9.70;99.90
14140;DHT22;7150;53.514;9.988;2024-01-25T05:22:28;9.60;99.90
14140;DHT22;7150;53.514;9.988;2024-01-25T05:24:53;9.60;99.90
14140;DHT22;7150;53.514;9.988;2024-01-25T05:27:19;9.60;99.90
14140;DHT22;7150;53.514;9.988;2024-01-25T05:29:44;9.60;99.90
14140;DHT22;7150;53.514;9.988;2024-01-25T05:32:10;9.60;99.90
14140;DHT22;7150;53.514;9.988;2024-01-25T05:34:35;9.60;99.90
14140;DHT22;7150;53.514;9.988;2024-01-25T05:37:01;9.60;99.90
14140;DHT22;7150;53.514;9.988;2024-01-25T05:39:26;9.60;99.90
14140;DHT22;7150;53.514;9.988;2024-01-25T05:41:52;9.60;99.90
14140;DHT22;7150;53.514;9.988;2024-01-25T05:44:17;9.60;99.90
14140;DHT22;7150;53.514;9.988;2024-01-25T05:46:42;9.60;99.90
14140;DHT22;7150;53.514;9.988;2024-01-25T05:49:08;9.60;99.90
14140;DHT22;7150;53.514;9.988;2024-01-25T05:51:33;9.60;99.90
14140;DHT22;7150;53.514;9.988;2024-01-25T05:53:59;9.60;99.90
14140;DHT22;7150;53.514;9.988;2024-01-25T05:56:24;9.60;99.90
14140;DHT22;7150;53.514;9.988;2024-01-25T05:58:50;9.70;99.90
14140;DHT22;7150;53.514;9.988;2024-01-25T06:01:16;9.70;99.90
14140;DHT22;7150;53.514;9.988;2024-01-25T06:03:41;9.70;99.90
14140;DHT22;7150;53.514;9.988;2024-01-25T06:06:07;9.60;99.90
14140;DHT22;7150;53.514;9.988;2024-01-25T06:08:35;9.60;99.90
14140;DHT22;7150;53.514;9.988;2024-01-25T06:11:01;9.60;99.90
14140;DHT22;7150;53.514;9.988;2024-01-25T06:13:26;9.60;99.90
14140;DHT22;7150;53.514;9.988;2024-01-25T06:15:52;9.60;99.90
14140;DHT22;7150;53.514;9.988;2024-01-25T06:18:17;9.60;99.90
14140;DHT22;7150;53.514;9.988;2024-01-25T06:20:42;9.60;99.90
14140;DHT22;7150;53.514;9.988;2024-01-25T06:23:09;9.70;99.90
14140;DHT22;7150;53.514;9.988;2024-01-25T06:25:35;9.70;99.90
14140;DHT22;7150;53.514;9.988;2024-01-25T06:28:01;9.70;99.90
14140;DHT22;7150;53.514;9.988;2024-01-25T06:30:29;9.60;99.90
14140;DHT22;7150;53.514;9.988;2024-01-25T06:32:54;9.70;99.90
14140;DHT22;7150;53.514;9.988;2024-01-25T06:35:20;9.70;99.90
14140;DHT22;7150;53.514;9.988;2024-01-25T06:37:45;9.60;99.90
14140;DHT22;7150;53.514;9.988;2024-01-25T06:40:11;9.60;99.90
14140;DHT22;7150;53.514;9.988;2024-01-25T06:42:37;9.70;99.90
14140;DHT22;7150;53.514;9.988;2024-01-25T06:45:02;9.70;99.90
14140;DHT22;7150;53.514;9.988;2024-01-25T06:47:28;9.70;99.90
14140;DHT22;7150;53.514;9.988;2024-01-25T06:49:53;9.70;99.90
14140;DHT22;7150;53.514;9.988;2024-01-25T06:52:19;9.70;99.90
14140;DHT22;7150;53.514;9.988;2024-01-25T06:54:45;9.80;99.90
14140;DHT22;7150;53.514;9.988;2024-01-25T06:57:10;9.70;99.90
14140;DHT22;7150;53.514;9.988;2024-01-25T06:59:36;9.70;99.90
14140;DHT22;7150;53.514;9.988;2024-01-25T07:02:01;9.80;99.90
14140;DHT22;7150;53.514;9.988;2024-01-25T07:04:28;9.70;99.90
14140;DHT22;7150;53.514;9.988;2024-01-25T07:06:54;9.70;99.90
14140;DHT22;7150;53.514;9.988;2024-01-25T07:09:20;9.60;99.90
14140;DHT22;7150;53.514;9.988;2024-01-25T07:11:45;9.70;99.90
14140;DHT22;7150;53.514;9.988;2024-01-25T07:14:11;9.70;99.90
14140;DHT22;7150;53.514;9.988;2024-01-25T07:16:37;9.70;99.90
14140;DHT22;7150;53.514;9.988;2024-01-25T07:19:03;9.60;99.90
14140;DHT22;7150;53.514;9.988;2024-01-25T07:21:28;9.60;99.90
14140;DHT22;7150;53.514;9.988;2024-01-25T07:23:59;9.50;99.90
14140;DHT22;7150;53.514;9.988;2024-01-25T07:26:24;9.60;99.90
14140;DHT22;7150;53.514;9.988;2024-01-25T07:28:50;9.50;99.90
14140;DHT22;7150;53.514;9.988;2024-01-25T07:31:19;9.50;99.90
14140;DHT22;7150;53.514;9.988;2024-01-25T07:33:45;9.50;99.90
14140;DHT22;7150;53.514;9.988;2024-01-25T07:36:11;9.60;99.90
14140;DHT22;7150;53.514;9.988;2024-01-25T07:38:36;9.60;99.90
14140;DHT22;7150;53.514;9.988;2024-01-25T07:41:01;9.60;99.90
14140;DHT22;7150;53.514;9.988;2024-01-25T07:43:27;9.60;99.90
14140;DHT22;7150;53.514;9.988;2024-01-25T07:45:53;9.60;99.90
14140;DHT22;7150;53.514;9.988;2024-01-25T07:48:18;9.50;99.90
14140;DHT22;7150;53.514;9.988;2024-01-25T07:50:44;9.50;99.90
14140;DHT22;7150;53.514;9.988;2024-01-25T07:53:09;9.50;99.90
14140;DHT22;7150;53.514;9.988;2024-01-25T07:55:36;9.50;99.90
14140;DHT22;7150;53.514;9.988;2024-01-25T07:58:01;9.50;99.90
14140;DHT22;7150;53.514;9.988;2024-01-25T08:00:27;9.50;99.90
14140;DHT22;7150;53.514;9.988;2024-01-25T08:02:52;9.50;99.90
14140;DHT22;7150;53.514;9.988;2024-01-25T08:05:18;9.50;99.90
14140;DHT22;7150;53.514;9.988;2024-01-25T08:07:45;9.50;99.90
14140;DHT22;7150;53.514;9.988;2024-01-25T08:10:10;9.60;99.90
14140;DHT22;7150;53.514;9.988;2024-01-25T08:12:36;9.60;99.90
14140;DHT22;7150;53.514;9.988;2024-01-25T08:15:01;9.60;99.90
14140;DHT22;7150;53.514;9.988;2024-01-25T08:17:27;9.60;99.90
14140;DHT22;7150;53.514;9.988;2024-01-25T08:19:52;9.60;99.90
14140;DHT22;7150;53.514;9.988;2024-01-25T08:22:18;9.70;99.90
14140;DHT22;7150;53.514;9.988;2024-01-25T08:24:43;9.60;99.90
14140;DHT22;7150;53.514;9.988;2024-01-25T08:27:09;9.60;99.90
14140;DHT22;7150;53.514;9.988;2024-01-25T08:29:34;9.70;99.90
14140;DHT22;7150;53.514;9.988;2024-01-25T08:32:02;9.70;99.90
14140;DHT22;7150;53.514;9.988;2024-01-25T08:34:28;9.70;99.90
14140;DHT22;7150;53.514;9.988;2024-01-25T08:36:54;9.70;99.90
14140;DHT22;7150;53.514;9.988;2024-01-25T08:39:19;9.70;99.90
14140;DHT22;7150;53.514;9.988;2024-01-25T08:41:45;9.70;99.90
14140;DHT22;7150;53.514;9.988;2024-01-25T08:44:12;9.80;99.90
14140;DHT22;7150;53.514;9.988;2024-01-25T08:46:37;9.70;99.90
14140;DHT22;7150;53.514;9.988;2024-01-25T08:49:03;9.70;99.90
14140;DHT22;7150;53.514;9.988;2024-01-25T08:51:33;9.80;99.90
14140;DHT22;7150;53.514;9.988;2024-01-25T08:53:59;9.80;99.90
14140;DHT22;7150;53.514;9.988;2024-01-25T08:56:25;9.80;99.90
14140;DHT22;7150;53.514;9.988;2024-01-25T08:58:50;9.80;99.90
14140;DHT22;7150;53.514;9.988;2024-01-25T09:01:17;9.80;99.90
14140;DHT22;7150;53.514;9.988;2024-01-25T09:03:43;9.90;99.90
14140;DHT22;7150;53.514;9.988;2024-01-25T09:06:08;9.80;99.90
14140;DHT22;7150;53.514;9.988;2024-01-25T09:08:34;9.90;99.90
14140;DHT22;7150;53.514;9.988;2024-01-25T09:11:00;9.90;99.90
14140;DHT22;7150;53.514;9.988;2024-01-25T09:13:25;9.90;99.90
14140;DHT22;7150;53.514;9.988;2024-01-25T09:15:51;9.90;99.90
14140;DHT22;7150;53.514;9.988;2024-01-25T09:18:16;9.90;99.90
14140;DHT22;7150;53.514;9.988;2024-01-25T09:20:42;9.90;99.90
14140;DHT22;7150;53.514;9.988;2024-01-25T09:23:16;9.80;99.90
14140;DHT22;7150;53.514;9.988;2024-01-25T09:25:42;9.80;99.90
14140;DHT22;7150;53.514;9.988;2024-01-25T09:28:08;9.90;99.90
14140;DHT22;7150;53.514;9.988;2024-01-25T09:30:33;9.90;99.90
14140;DHT22;7150;53.514;9.988;2024-01-25T09:32:59;9.80;99.90
14140;DHT22;7150;53.514;9.988;2024-01-25T09:35:25;9.80;99.90
14140;DHT22;7150;53.514;9.988;2024-01-25T09:37:50;9.80;99.90
14140;DHT22;7150;53.514;9.988;2024-01-25T09:40:18;9.80;99.90
14140;DHT22;7150;53.514;9.988;2024-01-25T09:42:49;9.80;99.90
14140;DHT22;7150;53.514;9.988;2024-01-25T09:45:19;9.90;99.90
14140;DHT22;7150;53.514;9.988;2024-01-25T09:47:45;9.90;99.90
14140;DHT22;7150;53.514;9.988;2024-01-25T09:50:11;9.90;99.90
14140;DHT22;7150;53.514;9.988;2024-01-25T09:52:38;9.90;99.90
14140;DHT22;7150;53.514;9.988;2024-01-25T09:55:07;9.90;99.90
14140;DHT22;7150;53.514;9.988;2024-01-25T09:57:35;9.90;99.90
14140;DHT22;7150;53.514;9.988;2024-01-25T10:00:04;9.90;99.90
14140;DHT22;7150;53.514;9.988;2024-01-25T10:02:31;9.90;99.90
14140;DHT22;7150;53.514;9.988;2024-01-25T10:04:56;9.80;99.90
14140;DHT22;7150;53.514;9.988;2024-01-25T10:07:41;9.80;99.90
14140;DHT22;7150;53.514;9.988;2024-01-25T10:10:08;9.80;99.90
14140;DHT22;7150;53.514;9.988;2024-01-25T10:12:34;9.80;99.90
14140;DHT22;7150;53.514;9.988;2024-01-25T10:14:59;9.80;99.90
14140;DHT22;7150;53.514;9.988;2024-01-25T10:17:25;9.80;99.90
14140;DHT22;7150;53.514;9.988;2024-01-25T10:19:51;9.90;99.90
14140;DHT22;7150;53.514;9.988;2024-01-25T10:22:17;9.80;99.90
14140;DHT22;7150;53.514;9.988;2024-01-25T10:24:43;9.90;99.90
14140;DHT22;7150;53.514;9.988;2024-01-25T10:27:08;9.90;99.90
14140;DHT22;7150;53.514;9.988;2024-01-25T10:29:35;9.90;99.90
14140;DHT22;7150;53.514;9.988;2024-01-25T10:32:02;9.90;99.90
14140;DHT22;7150;53.514;9.988;2024-01-25T10:34:28;9.90;99.90
14140;DHT22;7150;53.514;9.988;2024-01-25T10:36:55;9.90;99.90
14140;DHT22;7150;53.514;9.988;2024-01-25T10:39:21;9.90;99.90
14140;DHT22;7150;53.514;9.988;2024-01-25T10:41:47;10.00;99.90
14140;DHT22;7150;53.514;9.988;2024-01-25T10:44:16;10.10;99.90
14140;DHT22;7150;53.514;9.988;2024-01-25T10:46:44;10.00;99.90
14140;DHT22;7150;53.514;9.988;2024-01-25T10:49:12;10.00;99.90
14140;DHT22;7150;53.514;9.988;2024-01-25T10:51:37;10.10;99.90
14140;DHT22;7150;53.514;9.988;2024-01-25T10:54:05;10.10;99.90
14140;DHT22;7150;53.514;9.988;2024-01-25T10:56:32;10.10;99.90
14140;DHT22;7150;53.514;9.988;2024-01-25T10:58:59;10.10;99.90
14140;DHT22;7150;53.514;9.988;2024-01-25T11:01:27;10.20;99.90
14140;DHT22;7150;53.514;9.988;2024-01-25T11:03:52;10.20;99.90
14140;DHT22;7150;53.514;9.988;2024-01-25T11:06:21;10.20;99.90
14140;DHT22;7150;53.514;9.988;2024-01-25T11:08:49;10.20;99.90
14140;DHT22;7150;53.514;9.988;2024-01-25T11:11:15;10.20;99.90
14140;DHT22;7150;53.514;9.988;2024-01-25T11:13:44;10.20;99.90
14140;DHT22;7150;53.514;9.988;2024-01-25T11:16:17;10.20;99.90
14140;DHT22;7150;53.514;9.988;2024-01-25T11:18:49;10.20;99.90
14140;DHT22;7150;53.514;9.988;2024-01-25T11:21:42;10.20;99.90
14140;DHT22;7150;53.514;9.988;2024-01-25T11:24:26;10.20;99.90
14140;DHT22;7150;53.514;9.988;2024-01-25T11:26:53;10.20;99.90
14140;DHT22;7150;53.514;9.988;2024-01-25T11:29:20;10.20;99.90
14140;DHT22;7150;53.514;9.988;2024-01-25T11:31:49;10.20;99.90
14140;DHT22;7150;53.514;9.988;2024-01-25T11:34:15;10.20;99.90
14140;DHT22;7150;53.514;9.988;2024-01-25T11:36:42;10.20;99.90
14140;DHT22;7150;53.514;9.988;2024-01-25T11:39:11;10.20;99.90
14140;DHT22;7150;53.514;9.988;2024-01-25T11:41:37;10.20;99.90
14140;DHT22;7150;53.514;9.988;2024-01-25T11:44:04;10.20;99.90
14140;DHT22;7150;53.514;9.988;2024-01-25T11:46:32;10.20;99.90
14140;DHT22;7150;53.514;9.988;2024-01-25T11:48:58;10.20;99.90
14140;DHT22;7150;53.514;9.988;2024-01-25T11:51:24;10.20;99.90
14140;DHT22;7150;53.514;9.988;2024-01-25T11:53:50;10.20;99.90
14140;DHT22;7150;53.514;9.988;2024-01-25T11:56:20;10.20;99.90
14140;DHT22;7150;53.514;9.988;2024-01-25T11:58:47;10.20;99.90
14140;DHT22;7150;53.514;9.988;2024-01-25T12:01:13;10.20;99.90
14140;DHT22;7150;53.514;9.988;2024-01-25T12:03:40;10.30;99.90
14140;DHT22;7150;53.514;9.988;2024-01-25T12:06:06;10.30;99.90
14140;DHT22;7150;53.514;9.988;2024-01-25T12:08:34;10.30;99.90
14140;DHT22;7150;53.514;9.988;2024-01-25T12:11:07;10.30;99.90
14140;DHT22;7150;53.514;9.988;2024-01-25T12:13:39;10.30;99.90
14140;DHT22;7150;53.514;9.988;2024-01-25T12:16:11;10.30;99.90
14140;DHT22;7150;53.514;9.988;2024-01-25T12:18:41;10.30;99.90
14140;DHT22;7150;53.514;9.988;2024-01-25T12:21:07;10.40;99.90
14140;DHT22;7150;53.514;9.988;2024-01-25T12:23:38;10.40;99.90
14140;DHT22;7150;53.514;9.988;2024-01-25T12:26:07;10.40;99.90
14140;DHT22;7150;53.514;9.988;2024-01-25T12:28:34;10.40;99.90
14140;DHT22;7150;53.514;9.988;2024-01-25T12:31:00;10.40;99.90
14140;DHT22;7150;53.514;9.988;2024-01-25T12:33:26;10.40;99.90
14140;DHT22;7150;53.514;9.988;2024-01-25T12:35:51;10.40;99.90
14140;DHT22;7150;53.514;9.988;2024-01-25T12:38:17;10.40;99.90
14140;DHT22;7150;53.514;9.988;2024-01-25T12:40:47;10.40;99.90
14140;DHT22;7150;53.514;9.988;2024-01-25T12:43:13;10.40;99.90
14140;DHT22;7150;53.514;9.988;2024-01-25T12:45:39;10.40;99.90
14140;DHT22;7150;53.514;9.988;2024-01-25T12:48:05;10.40;99.90
14140;DHT22;7150;53.514;9.988;2024-01-25T12:50:32;10.40;99.90
14140;DHT22;7150;53.514;9.988;2024-01-25T12:52:57;10.40;99.90
14140;DHT22;7150;53.514;9.988;2024-01-25T12:55:24;10.50;99.90
14140;DHT22;7150;53.514;9.988;2024-01-25T12:57:50;10.40;99.90
14140;DHT22;7150;53.514;9.988;2024-01-25T13:00:15;10.50;99.90
14140;DHT22;7150;53.514;9.988;2024-01-25T13:02:41;10.40;99.90
14140;DHT22;7150;53.514;9.988;2024-01-25T13:05:09;10.40;99.90
14140;DHT22;7150;53.514;9.988;2024-01-25T13:07:34;10.40;99.90
14140;DHT22;7150;53.514;9.988;2024-01-25T13:10:00;10.40;99.90
14140;DHT22;7150;53.514;9.988;2024-01-25T13:12:25;10.40;99.90
14140;DHT22;7150;53.514;9.988;2024-01-25T13:14:51;10.40;99.90
14140;DHT22;7150;53.514;9.988;2024-01-25T13:17:16;10.40;99.90
14140;DHT22;7150;53.514;9.988;2024-01-25T13:19:42;10.40;99.90
14140;DHT22;7150;53.514;9.988;2024-01-25T13:22:07;10.50;99.90
14140;DHT22;7150;53.514;9.988;2024-01-25T13:24:33;10.50;99.90
14140;DHT22;7150;53.514;9.988;2024-01-25T13:26:58;10.40;99.90
14140;DHT22;7150;53.514;9.988;2024-01-25T13:29:24;10.50;99.90
14140;DHT22;7150;53.514;9.988;2024-01-25T13:31:49;10.50;99.90
14140;DHT22;7150;53.514;9.988;2024-01-25T13:34:15;10.50;99.90
14140;DHT22;7150;53.514;9.988;2024-01-25T13:36:40;10.50;99.90
14140;DHT22;7150;53.514;9.988;2024-01-25T13:39:06;10.50;99.90
14140;DHT22;7150;53.514;9.988;2024-01-25T13:41:31;10.60;99.90
14140;DHT22;7150;53.514;9.988;2024-01-25T13:43:57;10.60;99.90
14140;DHT22;7150;53.514;9.988;2024-01-25T13:46:22;10.60;99.90
14140;DHT22;7150;53.514;9.988;2024-01-25T13:48:48;10.70;99.90
14140;DHT22;7150;53.514;9.988;2024-01-25T13:51:13;10.70;99.90
14140;DHT22;7150;53.514;9.988;2024-01-25T13:53:39;10.80;99.90
14140;DHT22;7150;53.514;9.988;2024-01-25T13:56:05;10.80;99.90
14140;DHT22;7150;53.514;9.988;2024-01-25T13:58:30;10.80;99.90
14140;DHT22;7150;53.514;9.988;2024-01-25T14:00:56;10.80;99.90
14140;DHT22;7150;53.514;9.988;2024-01-25T14:03:21;10.90;99.90
14140;DHT22;7150;53.514;9.988;2024-01-25T14:05:47;10.90;99.90
14140;DHT22;7150;53.514;9.988;2024-01-25T14:08:12;10.90;99.90
14140;DHT22;7150;53.514;9.988;2024-01-25T14:10:38;10.90;99.90
14140;DHT22;7150;53.514;9.988;2024-01-25T14:13:03;10.90;99.90
14140;DHT22;7150;53.514;9.988;2024-01-25T14:15:29;11.00;99.90
14140;DHT22;7150;53.514;9.988;2024-01-25T14:17:54;11.00;99.90
14140;DHT22;7150;53.514;9.988;2024-01-25T14:20:20;11.00;99.90
14140;DHT22;7150;53.514;9.988;2024-01-25T14:22:45;11.00;99.90
14140;DHT22;7150;53.514;9.988;2024-01-25T14:25:10;11.00;99.90
14140;DHT22;7150;53.514;9.988;2024-01-25T14:27:37;11.10;99.90
14140;DHT22;7150;53.514;9.988;2024-01-25T14:30:03;11.10;99.90
14140;DHT22;7150;53.514;9.988;2024-01-25T14:32:29;11.10;99.90
14140;DHT22;7150;53.514;9.988;2024-01-25T14:34:55;11.10;99.90
14140;DHT22;7150;53.514;9.988;2024-01-25T14:37:20;11.10;99.90
14140;DHT22;7150;53.514;9.988;2024-01-25T14:39:45;11.10;99.90
14140;DHT22;7150;53.514;9.988;2024-01-25T14:42:11;11.10;99.90
14140;DHT22;7150;53.514;9.988;2024-01-25T14:44:37;11.10;99.90
14140;DHT22;7150;53.514;9.988;2024-01-25T14:47:03;11.10;99.90
14140;DHT22;7150;53.514;9.988;2024-01-25T14:49:29;11.10;99.90
14140;DHT22;7150;53.514;9.988;2024-01-25T14:51:54;11.10;99.90
14140;DHT22;7150;53.514;9.988;2024-01-25T14:54:20;11.10;99.90
14140;DHT22;7150;53.514;9.988;2024-01-25T14:56:45;11.10;99.90
14140;DHT22;7150;53.514;9.988;2024-01-25T14:59:15;11.10;99.90
14140;DHT22;7150;53.514;9.988;2024-01-25T15:01:41;11.10;99.90
14140;DHT22;7150;53.514;9.988;2024-01-25T15:04:06;11.00;99.90
14140;DHT22;7150;53.514;9.988;2024-01-25T15:06:32;11.10;99.90
14140;DHT22;7150;53.514;9.988;2024-01-25T15:08:57;11.00;99.90
14140;DHT22;7150;53.514;9.988;2024-01-25T15:11:23;10.90;99.90
14140;DHT22;7150;53.514;9.988;2024-01-25T15:13:48;10.90;99.90
14140;DHT22;7150;53.514;9.988;2024-01-25T15:16:14;10.90;99.90
14140;DHT22;7150;53.514;9.988;2024-01-25T15:18:39;10.90;99.90
14140;DHT22;7150;53.514;9.988;2024-01-25T15:21:05;10.90;99.90
14140;DHT22;7150;53.514;9.988;2024-01-25T15:23:31;10.80;99.90
14140;DHT22;7150;53.514;9.988;2024-01-25T15:25:56;10.80;99.90
14140;DHT22;7150;53.514;9.988;2024-01-25T15:28:22;10.80;99.90
14140;DHT22;7150;53.514;9.988;2024-01-25T15:30:48;10.70;99.90
14140;DHT22;7150;53.514;9.988;2024-01-25T15:33:13;10.70;99.90
14140;DHT22;7150;53.514;9.988;2024-01-25T15:35:39;10.70;99.90
14140;DHT22;7150;53.514;9.988;2024-01-25T15:38:04;10.60;99.90
14140;DHT22;7150;53.514;9.988;2024-01-25T15:40:33;10.50;99.90
14140;DHT22;7150;53.514;9.988;2024-01-25T15:42:59;10.50;99.90
14140;DHT22;7150;53.514;9.988;2024-01-25T15:45:24;10.50;99.90
14140;DHT22;7150;53.514;9.988;2024-01-25T15:47:50;10.50;99.90
14140;DHT22;7150;53.514;9.988;2024-01-25T15:50:16;10.50;99.90